Terminal Aerodrome Forecast
Issued by NWS

Home | Current Version | Previous Version | Text Only | Print | Product List | Glossary On
Versions: 1 2 3 4 5 6 7 8 9 10 11 12 13
000
FTUS45 KLKN 291120
TAFEKO
TAF
KEKO 291120Z 2912/3012 VRB03KT P6SM FEW250
     FM291900 25008KT P6SM BKN050 OVC250
     FM301100 24007KT P6SM VCSH OVC040=

USA.gov is the U.S. government's official web portal to all federal, state and local government web resources and services.